KFXE

Fort Lauderdale Executive Airport

Fort Lauderdale, Florida, USA
METAR KFXE 230653Z 10008KT 10SM FEW022 BKN070 23/21 A3030 RMK AO2 RAE30 SLP261 P0000 T02280211
Observed Flight Rules
Feb-23 @ 06:53 UTC (an hour ago) Visual Flight Rules
Wind Visibility Clouds
100° at 8 knots 10 miles
  • Few at 2,200' AGL
  • Broken at 7,000' AGL
Temperatures Readings Precipitation
Current 23°C / 73°F
Dewpoint 21°C / 70°F
Humidity 89%
Altimeter 30.3" Hg
Pressure 1026.1 hPa
Elevation 6
Current Rain 0.005
METAR KFXE 230653Z 10008KT 10SM FEW022 BKN070 23/21 A3030 RMK AO2 RAE30 SLP261 P0000 T02280211
Observed Flight Rules
Feb-23 @ 06:53 UTC
(an hour ago)
VFR
Wind Visibility
100° at 8 knots 10 miles
Clouds
  • Few at 2,200' AGL
  • Broken at 7,000' AGL
Temperature Dewpoint
23°C / 73°F 21°C / 70°F
Humidity Altimeter Pressure
89% 30.3" Hg 1026.1 hPa
Current Rain
0.005